地図

経路データ

SID SEASON NUMBER BASIN SUBBASIN NAME ISO_TIME NATURE LAT LON WMO_WIND WMO_PRES WMO_AGENCY TRACK_TYPE DIST2LAND LANDFALL IFLAG USA_AGENCY USA_ATCF_ID USA_LAT USA_LON USA_RECORD USA_STATUS USA_WIND USA_PRES USA_SSHS USA_R34_NE USA_R34_SE USA_R34_SW USA_R34_NW USA_R50_NE USA_R50_SE USA_R50_SW USA_R50_NW USA_R64_NE USA_R64_SE USA_R64_SW USA_R64_NW USA_POCI USA_ROCI USA_RMW USA_EYE TOKYO_LAT TOKYO_LON TOKYO_GRADE TOKYO_WIND TOKYO_PRES TOKYO_R50_DIR TOKYO_R50_LONG TOKYO_R50_SHORT TOKYO_R30_DIR TOKYO_R30_LONG TOKYO_R30_SHORT TOKYO_LAND CMA_LAT CMA_LON CMA_CAT CMA_WIND CMA_PRES HKO_LAT HKO_LON HKO_CAT HKO_WIND HKO_PRES NEWDELHI_LAT NEWDELHI_LON NEWDELHI_GRADE NEWDELHI_WIND NEWDELHI_PRES NEWDELHI_CI NEWDELHI_DP NEWDELHI_POCI REUNION_LAT REUNION_LON REUNION_TYPE REUNION_WIND REUNION_PRES REUNION_TNUM REUNION_CI REUNION_RMW REUNION_R34_NE REUNION_R34_SE REUNION_R34_SW REUNION_R34_NW REUNION_R50_NE REUNION_R50_SE REUNION_R50_SW REUNION_R50_NW REUNION_R64_NE REUNION_R64_SE REUNION_R64_SW REUNION_R64_NW BOM_LAT BOM_LON BOM_TYPE BOM_WIND BOM_PRES BOM_TNUM BOM_CI BOM_RMW BOM_R34_NE BOM_R34_SE BOM_R34_SW BOM_R34_NW BOM_R50_NE BOM_R50_SE BOM_R50_SW BOM_R50_NW BOM_R64_NE BOM_R64_SE BOM_R64_SW BOM_R64_NW BOM_ROCI BOM_POCI BOM_EYE BOM_POS_METHOD BOM_PRES_METHOD NADI_LAT NADI_LON NADI_CAT NADI_WIND NADI_PRES WELLINGTON_LAT WELLINGTON_LON WELLINGTON_WIND WELLINGTON_PRES DS824_LAT DS824_LON DS824_STAGE DS824_WIND DS824_PRES TD9636_LAT TD9636_LON TD9636_STAGE TD9636_WIND TD9636_PRES TD9635_LAT TD9635_LON TD9635_WIND TD9635_PRES TD9635_ROCI NEUMANN_LAT NEUMANN_LON NEUMANN_CLASS NEUMANN_WIND NEUMANN_PRES MLC_LAT MLC_LON MLC_CLASS MLC_WIND MLC_PRES USA_GUST BOM_GUST BOM_GUST_PER REUNION_GUST REUNION_GUST_PER USA_SEAHGT USA_SEARAD_NE USA_SEARAD_SE USA_SEARAD_SW USA_SEARAD_NW STORM_SPEED STORM_DIR
1902355S17420 1903 57 SI MM NOT_NAMED 1902-12-20 18:00:00 NR -16.8000 60.0000 main 441 436 __________O___ -1 -16.8000 60.0000 7 3 258
1902355S17420 1903 57 SI MM NOT_NAMED 1902-12-20 21:00:00 NR -16.8311 59.8467 main 430 415 __________P___ -1 -16.8311 59.8467 7 3 257
1902355S17420 1903 57 SI MM NOT_NAMED 1902-12-21 00:00:00 NR -16.8697 59.6748 main 415 405 __________P___ -1 -16.8697 59.6748 7 4 256
1902355S17420 1903 57 SI MM NOT_NAMED 1902-12-21 03:00:00 NR -16.9235 59.4655 main 405 381 __________P___ -1 -16.9235 59.4655 7 5 254
1902355S17420 1903 57 SI MM NOT_NAMED 1902-12-21 06:00:00 NR -17.0000 59.2000 main 381 358 __________O___ -1 -17.0000 59.2000 7 6 253
1902355S17420 1903 57 SI MM NOT_NAMED 1902-12-21 09:00:00 NR -17.1037 58.8674 main 358 335 __________P___ -1 -17.1037 58.8674 7 7 251
1902355S17420 1903 57 SI MM NOT_NAMED 1902-12-21 12:00:00 NR -17.2279 58.4877 main 335 304 __________P___ -1 -17.2279 58.4877 7 8 251
1902355S17420 1903 57 SI MM NOT_NAMED 1902-12-21 15:00:00 NR -17.3631 58.0892 main 304 290 __________P___ -1 -17.3631 58.0892 7 8 250
1902355S17420 1903 57 SI MM NOT_NAMED 1902-12-21 18:00:00 NR -17.5000 57.7000 main 290 279 __________O___ -1 -17.5000 57.7000 7 7 250
1902355S17420 1903 57 SI MM NOT_NAMED 1902-12-21 21:00:00 NR -17.6206 57.3644 main 279 269 __________P___ -1 -17.6206 57.3644 7 7 249
1902355S17420 1903 57 SI MM NOT_NAMED 1902-12-22 00:00:00 NR -17.7421 57.0421 main 273 256 __________P___ -1 -17.7421 57.0421 7 7 248
1902355S17420 1903 57 SI MM NOT_NAMED 1902-12-22 03:00:00 NR -17.8675 56.7238 main 260 257 __________P___ -1 -17.8675 56.7238 7 7 247
1902355S17420 1903 57 SI MM NOT_NAMED 1902-12-22 06:00:00 NR -18.0000 56.4000 main 261 256 __________O___ -1 -18.0000 56.4000 7 7 247
1902355S17420 1903 57 SI MM NOT_NAMED 1902-12-22 09:00:00 NR -18.1427 56.0571 main 267 264 __________P___ -1 -18.1427 56.0571 7 7 246
1902355S17420 1903 57 SI MM NOT_NAMED 1902-12-22 12:00:00 NR -18.2923 55.7074 main 276 275 __________P___ -1 -18.2923 55.7074 7 7 246
1902355S17420 1903 57 SI MM NOT_NAMED 1902-12-22 15:00:00 NR -18.4458 55.3540 main 290 269 __________P___ -1 -18.4458 55.3540 7 7 245
1902355S17420 1903 57 SI MM NOT_NAMED 1902-12-22 18:00:00 NR -18.6000 55.0000 main 270 260 __________O___ -1 -18.6000 55.0000 7 7 245
1902355S17420 1903 57 SI MM NOT_NAMED 1902-12-22 21:00:00 NR -18.7524 54.6481 main 256 253 __________P___ -1 -18.7524 54.6481 7 7 246
1902355S17420 1903 57 SI MM NOT_NAMED 1902-12-23 00:00:00 NR -18.9030 54.2980 main 257 251 __________P___ -1 -18.9030 54.2980 7 7 246
1902355S17420 1903 57 SI MM NOT_NAMED 1902-12-23 03:00:00 NR -19.0520 53.9489 main 257 257 __________P___ -1 -19.0520 53.9489 7 7 246
1902355S17420 1903 57 SI MM NOT_NAMED 1902-12-23 06:00:00 NR -19.2000 53.6000 main 268 __________O___ -1 -19.2000 53.6000 7 7 246

IBTrACS Databaseについて

本データベースは、米国NOAAが公開する1842年以降の世界の熱帯低気圧のベストトラックデータアーカイブInternational Best Track Archive for Climate Stewardship (IBTrACS)を、ウェブで閲覧しやすい形式に変換したものです。

最終更新日:2021-12-03